Карточка аэропорта UNWW

Внимание!
Информация на этой странице в стадии наполнения.
Если вы не увидели какой-то информации, или заметили неточность - пожалуйста сообщите нам!
Спасибо!
Команда RU-STAFF
Название аэропортаСпиченково
Название аэропорта (англ.)Spichenkovo
Превышение1023 ft. (311.8 m.)
Координаты53°48.714', 86°52.704'
Высота перехода800m
Эшелон переходаFL050
Коды ответчика5270-5277
Зона ОрВДНовосибирск РПИ (UNNT)
Данные METARUNWW 150330Z 18006MPS 9999 SCT046 11/04 Q1009 R19/290250 NOSIG RMK QFE730
Проноз погоды (TAF)UNWW 150200Z 1503/1603 21008G16MPS 8000 -SHRA BKN040CB TX15/1508Z TN01/1523Z TEMPO 1503/1512 25011G20MPS -TSRA BKN016CB BECMG 1512/1514 26007G16MPS BKN016CB BECMG 1516/1520 31003G08MPS
NOTAMshow/hide NOTAM
AWOS   TABLE

Информация о ВПП

ВПП Длина ВПП (м.) Покрытие Курс ВПП Частота ILS
192679Цементобетон194111.1
012679Цементобетон14 

Диспетчерские позиции

Позывной Наименование органа УВД Частота
UNWW_APPНовокузнецк-Подход118.6
UNWW_TWRНовокузнецк-Старт121.2



Спутниковое изображение